sensor_id;sensor_type;location;lat;lon;timestamp;temperature;humidity
78448;SHT31;67742;51.972;5.682;2024-03-06T00:02:09;10.1;64.7
78448;SHT31;67742;51.972;5.682;2024-03-06T00:04:37;10.1;64.9
78448;SHT31;67742;51.972;5.682;2024-03-06T00:07:08;10.1;65.0
78448;SHT31;67742;51.972;5.682;2024-03-06T00:09:36;10.1;65.0
78448;SHT31;67742;51.972;5.682;2024-03-06T00:12:07;10.1;65.1
78448;SHT31;67742;51.972;5.682;2024-03-06T00:14:35;10.0;65.0
78448;SHT31;67742;51.972;5.682;2024-03-06T00:17:04;10.0;64.6
78448;SHT31;67742;51.972;5.682;2024-03-06T00:19:35;10.0;64.2
78448;SHT31;67742;51.972;5.682;2024-03-06T00:22:04;10.0;64.0
78448;SHT31;67742;51.972;5.682;2024-03-06T00:24:32;10.0;63.7
78448;SHT31;67742;51.972;5.682;2024-03-06T00:27:02;9.9;63.6
78448;SHT31;67742;51.972;5.682;2024-03-06T00:29:32;9.9;63.4
78448;SHT31;67742;51.972;5.682;2024-03-06T00:32:06;9.9;63.3
78448;SHT31;67742;51.972;5.682;2024-03-06T00:34:37;9.8;63.2
78448;SHT31;67742;51.972;5.682;2024-03-06T00:37:05;9.8;63.1
78448;SHT31;67742;51.972;5.682;2024-03-06T00:39:35;9.8;63.0
78448;SHT31;67742;51.972;5.682;2024-03-06T00:42:03;9.7;63.0
78448;SHT31;67742;51.972;5.682;2024-03-06T00:44:32;9.7;63.0
78448;SHT31;67742;51.972;5.682;2024-03-06T00:47:00;9.6;62.9
78448;SHT31;67742;51.972;5.682;2024-03-06T00:49:29;9.6;62.9
78448;SHT31;67742;51.972;5.682;2024-03-06T00:51:57;9.6;62.7
78448;SHT31;67742;51.972;5.682;2024-03-06T00:54:26;9.5;62.8
78448;SHT31;67742;51.972;5.682;2024-03-06T00:56:54;9.5;62.8
78448;SHT31;67742;51.972;5.682;2024-03-06T00:59:24;9.4;62.9
78448;SHT31;67742;51.972;5.682;2024-03-06T01:01:52;9.4;63.2
78448;SHT31;67742;51.972;5.682;2024-03-06T01:04:22;9.4;63.3
78448;SHT31;67742;51.972;5.682;2024-03-06T01:06:51;9.3;63.5
78448;SHT31;67742;51.972;5.682;2024-03-06T01:09:20;9.3;63.5
78448;SHT31;67742;51.972;5.682;2024-03-06T01:11:49;9.3;63.5
78448;SHT31;67742;51.972;5.682;2024-03-06T01:14:18;9.3;63.5
78448;SHT31;67742;51.972;5.682;2024-03-06T01:16:46;9.2;63.5
78448;SHT31;67742;51.972;5.682;2024-03-06T01:19:14;9.2;63.6
78448;SHT31;67742;51.972;5.682;2024-03-06T01:21:45;9.2;63.6
78448;SHT31;67742;51.972;5.682;2024-03-06T01:24:14;9.1;63.7
78448;SHT31;67742;51.972;5.682;2024-03-06T01:26:43;9.1;63.6
78448;SHT31;67742;51.972;5.682;2024-03-06T01:29:11;9.1;63.6
78448;SHT31;67742;51.972;5.682;2024-03-06T01:31:40;9.0;63.7
78448;SHT31;67742;51.972;5.682;2024-03-06T01:34:08;9.0;63.6
78448;SHT31;67742;51.972;5.682;2024-03-06T01:36:39;9.0;63.5
78448;SHT31;67742;51.972;5.682;2024-03-06T01:39:09;8.9;63.6
78448;SHT31;67742;51.972;5.682;2024-03-06T01:41:46;8.9;63.6
78448;SHT31;67742;51.972;5.682;2024-03-06T01:44:16;8.9;63.6
78448;SHT31;67742;51.972;5.682;2024-03-06T01:46:45;8.8;63.6
78448;SHT31;67742;51.972;5.682;2024-03-06T01:49:18;8.8;63.6
78448;SHT31;67742;51.972;5.682;2024-03-06T01:51:50;8.8;63.7
78448;SHT31;67742;51.972;5.682;2024-03-06T01:54:21;8.8;64.1
78448;SHT31;67742;51.972;5.682;2024-03-06T01:56:50;8.7;64.3
78448;SHT31;67742;51.972;5.682;2024-03-06T01:59:21;8.8;64.2
78448;SHT31;67742;51.972;5.682;2024-03-06T02:01:54;8.8;64.1
78448;SHT31;67742;51.972;5.682;2024-03-06T02:04:24;8.8;64.0
78448;SHT31;67742;51.972;5.682;2024-03-06T02:06:54;8.8;64.0
78448;SHT31;67742;51.972;5.682;2024-03-06T02:09:23;8.7;64.0
78448;SHT31;67742;51.972;5.682;2024-03-06T02:11:52;8.7;64.0
78448;SHT31;67742;51.972;5.682;2024-03-06T02:14:20;8.7;64.1
78448;SHT31;67742;51.972;5.682;2024-03-06T02:16:49;8.7;64.2
78448;SHT31;67742;51.972;5.682;2024-03-06T02:19:17;8.7;64.3
78448;SHT31;67742;51.972;5.682;2024-03-06T02:21:46;8.6;64.4
78448;SHT31;67742;51.972;5.682;2024-03-06T02:24:14;8.6;64.6
78448;SHT31;67742;51.972;5.682;2024-03-06T02:26:43;8.6;64.7
78448;SHT31;67742;51.972;5.682;2024-03-06T02:29:11;8.6;64.5
78448;SHT31;67742;51.972;5.682;2024-03-06T02:31:41;8.5;64.5
78448;SHT31;67742;51.972;5.682;2024-03-06T02:34:09;8.5;64.6
78448;SHT31;67742;51.972;5.682;2024-03-06T02:36:38;8.5;64.6
78448;SHT31;67742;51.972;5.682;2024-03-06T02:39:06;8.5;64.6
78448;SHT31;67742;51.972;5.682;2024-03-06T02:41:35;8.4;64.7
78448;SHT31;67742;51.972;5.682;2024-03-06T02:44:04;8.4;64.6
78448;SHT31;67742;51.972;5.682;2024-03-06T02:46:33;8.4;64.7
78448;SHT31;67742;51.972;5.682;2024-03-06T02:49:02;8.4;64.6
78448;SHT31;67742;51.972;5.682;2024-03-06T02:51:32;8.3;64.6
78448;SHT31;67742;51.972;5.682;2024-03-06T02:54:00;8.3;64.7
78448;SHT31;67742;51.972;5.682;2024-03-06T02:56:29;8.3;64.7
78448;SHT31;67742;51.972;5.682;2024-03-06T02:58:57;8.3;65.1
78448;SHT31;67742;51.972;5.682;2024-03-06T03:01:31;8.2;65.3
78448;SHT31;67742;51.972;5.682;2024-03-06T03:03:59;8.2;65.6
78448;SHT31;67742;51.972;5.682;2024-03-06T03:06:28;8.2;65.6
78448;SHT31;67742;51.972;5.682;2024-03-06T03:08:56;8.2;65.8
78448;SHT31;67742;51.972;5.682;2024-03-06T03:11:25;8.2;65.8
78448;SHT31;67742;51.972;5.682;2024-03-06T03:13:53;8.1;65.7
78448;SHT31;67742;51.972;5.682;2024-03-06T03:16:23;8.1;65.8
78448;SHT31;67742;51.972;5.682;2024-03-06T03:18:51;8.1;65.8
78448;SHT31;67742;51.972;5.682;2024-03-06T03:21:20;8.1;65.8
78448;SHT31;67742;51.972;5.682;2024-03-06T03:23:48;8.1;65.8
78448;SHT31;67742;51.972;5.682;2024-03-06T03:26:17;8.1;66.0
78448;SHT31;67742;51.972;5.682;2024-03-06T03:28:45;8.0;66.1
78448;SHT31;67742;51.972;5.682;2024-03-06T03:31:14;8.0;66.1
78448;SHT31;67742;51.972;5.682;2024-03-06T03:33:42;8.0;66.2
78448;SHT31;67742;51.972;5.682;2024-03-06T03:36:11;8.0;66.0
78448;SHT31;67742;51.972;5.682;2024-03-06T03:38:39;8.0;66.0
78448;SHT31;67742;51.972;5.682;2024-03-06T03:41:09;8.0;66.1
78448;SHT31;67742;51.972;5.682;2024-03-06T03:43:38;8.0;66.2
78448;SHT31;67742;51.972;5.682;2024-03-06T03:46:08;8.0;66.1
78448;SHT31;67742;51.972;5.682;2024-03-06T03:48:37;8.0;66.1
78448;SHT31;67742;51.972;5.682;2024-03-06T03:51:06;8.0;66.2
78448;SHT31;67742;51.972;5.682;2024-03-06T03:53:35;7.9;66.2
78448;SHT31;67742;51.972;5.682;2024-03-06T03:56:06;7.9;66.3
78448;SHT31;67742;51.972;5.682;2024-03-06T03:58:34;7.9;66.4
78448;SHT31;67742;51.972;5.682;2024-03-06T04:01:03;7.9;66.5
78448;SHT31;67742;51.972;5.682;2024-03-06T04:03:34;7.9;66.5
78448;SHT31;67742;51.972;5.682;2024-03-06T04:06:05;7.9;66.6
78448;SHT31;67742;51.972;5.682;2024-03-06T04:08:33;7.9;66.6
78448;SHT31;67742;51.972;5.682;2024-03-06T04:11:04;7.9;66.5
78448;SHT31;67742;51.972;5.682;2024-03-06T04:13:37;7.9;66.5
78448;SHT31;67742;51.972;5.682;2024-03-06T04:16:06;7.9;66.5
78448;SHT31;67742;51.972;5.682;2024-03-06T04:18:35;7.9;66.3
78448;SHT31;67742;51.972;5.682;2024-03-06T04:21:04;7.9;66.2
78448;SHT31;67742;51.972;5.682;2024-03-06T04:23:33;7.9;66.1
78448;SHT31;67742;51.972;5.682;2024-03-06T04:26:02;7.9;66.0
78448;SHT31;67742;51.972;5.682;2024-03-06T04:28:32;7.9;65.9
78448;SHT31;67742;51.972;5.682;2024-03-06T04:31:01;7.8;65.8
78448;SHT31;67742;51.972;5.682;2024-03-06T04:33:29;7.8;65.8
78448;SHT31;67742;51.972;5.682;2024-03-06T04:35:58;7.8;65.8
78448;SHT31;67742;51.972;5.682;2024-03-06T04:38:26;7.8;65.8
78448;SHT31;67742;51.972;5.682;2024-03-06T04:40:55;7.8;66.0
78448;SHT31;67742;51.972;5.682;2024-03-06T04:43:24;7.8;66.1
78448;SHT31;67742;51.972;5.682;2024-03-06T04:45:52;7.8;65.9
78448;SHT31;67742;51.972;5.682;2024-03-06T04:48:21;7.8;65.9
78448;SHT31;67742;51.972;5.682;2024-03-06T04:50:49;7.7;65.7
78448;SHT31;67742;51.972;5.682;2024-03-06T04:53:19;7.7;65.7
78448;SHT31;67742;51.972;5.682;2024-03-06T04:55:48;7.7;65.7
78448;SHT31;67742;51.972;5.682;2024-03-06T04:58:16;7.7;65.5
78448;SHT31;67742;51.972;5.682;2024-03-06T05:00:46;7.7;65.5
78448;SHT31;67742;51.972;5.682;2024-03-06T05:03:15;7.7;65.5
78448;SHT31;67742;51.972;5.682;2024-03-06T05:05:43;7.7;65.7
78448;SHT31;67742;51.972;5.682;2024-03-06T05:08:13;7.7;65.7
78448;SHT31;67742;51.972;5.682;2024-03-06T05:10:42;7.7;65.6
78448;SHT31;67742;51.972;5.682;2024-03-06T05:13:12;7.7;65.7
78448;SHT31;67742;51.972;5.682;2024-03-06T05:15:43;7.6;65.7
78448;SHT31;67742;51.972;5.682;2024-03-06T05:18:11;7.6;65.8
78448;SHT31;67742;51.972;5.682;2024-03-06T05:20:40;7.6;65.9
78448;SHT31;67742;51.972;5.682;2024-03-06T05:23:09;7.6;66.0
78448;SHT31;67742;51.972;5.682;2024-03-06T05:25:39;7.6;66.0
78448;SHT31;67742;51.972;5.682;2024-03-06T05:28:07;7.6;66.1
78448;SHT31;67742;51.972;5.682;2024-03-06T05:30:38;7.6;66.2
78448;SHT31;67742;51.972;5.682;2024-03-06T05:33:07;7.6;66.3
78448;SHT31;67742;51.972;5.682;2024-03-06T05:35:35;7.7;66.4
78448;SHT31;67742;51.972;5.682;2024-03-06T05:38:04;7.7;66.3
78448;SHT31;67742;51.972;5.682;2024-03-06T05:40:33;7.7;66.0
78448;SHT31;67742;51.972;5.682;2024-03-06T05:43:03;7.8;65.7
78448;SHT31;67742;51.972;5.682;2024-03-06T05:45:32;7.8;65.5
78448;SHT31;67742;51.972;5.682;2024-03-06T05:48:00;7.8;65.3
78448;SHT31;67742;51.972;5.682;2024-03-06T05:50:30;7.8;65.4
78448;SHT31;67742;51.972;5.682;2024-03-06T05:52:59;7.8;65.5
78448;SHT31;67742;51.972;5.682;2024-03-06T05:55:28;7.7;65.6
78448;SHT31;67742;51.972;5.682;2024-03-06T05:57:56;7.7;65.7
78448;SHT31;67742;51.972;5.682;2024-03-06T06:00:25;7.7;65.6
78448;SHT31;67742;51.972;5.682;2024-03-06T06:02:54;7.7;65.7
78448;SHT31;67742;51.972;5.682;2024-03-06T06:05:22;7.7;65.8
78448;SHT31;67742;51.972;5.682;2024-03-06T06:07:51;7.7;66.0
78448;SHT31;67742;51.972;5.682;2024-03-06T06:10:20;7.7;66.8
78448;SHT31;67742;51.972;5.682;2024-03-06T06:12:48;7.7;69.7
78448;SHT31;67742;51.972;5.682;2024-03-06T06:15:17;7.6;69.0
78448;SHT31;67742;51.972;5.682;2024-03-06T06:17:46;7.6;69.2
78448;SHT31;67742;51.972;5.682;2024-03-06T06:20:14;7.6;68.7
78448;SHT31;67742;51.972;5.682;2024-03-06T06:22:44;7.7;69.4
78448;SHT31;67742;51.972;5.682;2024-03-06T06:25:13;7.7;70.8
78448;SHT31;67742;51.972;5.682;2024-03-06T06:27:42;7.7;71.2
78448;SHT31;67742;51.972;5.682;2024-03-06T06:30:13;7.7;72.3
78448;SHT31;67742;51.972;5.682;2024-03-06T06:32:42;7.7;73.1
78448;SHT31;67742;51.972;5.682;2024-03-06T06:35:12;7.7;73.0
78448;SHT31;67742;51.972;5.682;2024-03-06T06:37:41;7.7;73.1
78448;SHT31;67742;51.972;5.682;2024-03-06T06:40:11;7.7;73.3
78448;SHT31;67742;51.972;5.682;2024-03-06T06:42:44;7.7;72.9
78448;SHT31;67742;51.972;5.682;2024-03-06T06:45:16;7.8;73.5
78448;SHT31;67742;51.972;5.682;2024-03-06T06:47:45;7.8;73.7
78448;SHT31;67742;51.972;5.682;2024-03-06T06:50:15;7.8;73.9
78448;SHT31;67742;51.972;5.682;2024-03-06T06:52:44;7.8;73.6
78448;SHT31;67742;51.972;5.682;2024-03-06T06:55:13;7.9;73.8
78448;SHT31;67742;51.972;5.682;2024-03-06T06:57:41;7.9;73.7
78448;SHT31;67742;51.972;5.682;2024-03-06T07:00:11;7.9;73.4
78448;SHT31;67742;51.972;5.682;2024-03-06T07:02:40;8.0;73.0
78448;SHT31;67742;51.972;5.682;2024-03-06T07:05:10;8.0;72.6
78448;SHT31;67742;51.972;5.682;2024-03-06T07:07:39;8.0;72.1
78448;SHT31;67742;51.972;5.682;2024-03-06T07:10:08;8.1;71.8
78448;SHT31;67742;51.972;5.682;2024-03-06T07:12:37;8.1;71.7
78448;SHT31;67742;51.972;5.682;2024-03-06T07:15:06;8.1;71.5
78448;SHT31;67742;51.972;5.682;2024-03-06T07:17:35;8.1;71.3
78448;SHT31;67742;51.972;5.682;2024-03-06T07:20:04;8.1;71.0
78448;SHT31;67742;51.972;5.682;2024-03-06T07:22:35;8.1;70.8
78448;SHT31;67742;51.972;5.682;2024-03-06T07:25:03;8.1;70.6
78448;SHT31;67742;51.972;5.682;2024-03-06T07:27:32;8.1;70.5
78448;SHT31;67742;51.972;5.682;2024-03-06T07:30:03;8.2;70.5
78448;SHT31;67742;51.972;5.682;2024-03-06T07:32:33;8.2;70.1
78448;SHT31;67742;51.972;5.682;2024-03-06T07:35:02;8.2;70.2
78448;SHT31;67742;51.972;5.682;2024-03-06T07:37:30;8.2;70.2
78448;SHT31;67742;51.972;5.682;2024-03-06T07:40:00;8.2;70.3
78448;SHT31;67742;51.972;5.682;2024-03-06T07:42:31;8.2;70.4
78448;SHT31;67742;51.972;5.682;2024-03-06T07:45:01;8.2;70.1
78448;SHT31;67742;51.972;5.682;2024-03-06T07:47:30;8.2;70.2
78448;SHT31;67742;51.972;5.682;2024-03-06T07:49:59;8.2;69.9
78448;SHT31;67742;51.972;5.682;2024-03-06T07:52:27;8.2;70.1
78448;SHT31;67742;51.972;5.682;2024-03-06T07:54:56;8.2;70.4
78448;SHT31;67742;51.972;5.682;2024-03-06T07:57:24;8.2;70.6
78448;SHT31;67742;51.972;5.682;2024-03-06T07:59:53;8.2;70.6
78448;SHT31;67742;51.972;5.682;2024-03-06T08:02:21;8.2;70.7
78448;SHT31;67742;51.972;5.682;2024-03-06T08:04:50;8.3;70.8
78448;SHT31;67742;51.972;5.682;2024-03-06T08:07:18;8.3;71.1
78448;SHT31;67742;51.972;5.682;2024-03-06T08:09:47;8.3;71.1
78448;SHT31;67742;51.972;5.682;2024-03-06T08:12:16;8.3;71.0
78448;SHT31;67742;51.972;5.682;2024-03-06T08:14:44;8.4;70.9
78448;SHT31;67742;51.972;5.682;2024-03-06T08:17:13;8.4;70.8
78448;SHT31;67742;51.972;5.682;2024-03-06T08:19:41;8.4;70.9
78448;SHT31;67742;51.972;5.682;2024-03-06T08:22:10;8.4;70.9
78448;SHT31;67742;51.972;5.682;2024-03-06T08:24:38;8.4;71.1
78448;SHT31;67742;51.972;5.682;2024-03-06T08:27:07;8.5;71.2
78448;SHT31;67742;51.972;5.682;2024-03-06T08:29:35;8.5;71.4
78448;SHT31;67742;51.972;5.682;2024-03-06T08:32:04;8.5;71.4
78448;SHT31;67742;51.972;5.682;2024-03-06T08:34:33;8.5;71.2
78448;SHT31;67742;51.972;5.682;2024-03-06T08:37:01;8.6;71.4
78448;SHT31;67742;51.972;5.682;2024-03-06T08:39:30;8.6;71.3
78448;SHT31;67742;51.972;5.682;2024-03-06T08:41:59;8.6;71.7
78448;SHT31;67742;51.972;5.682;2024-03-06T08:44:29;8.6;72.0
78448;SHT31;67742;51.972;5.682;2024-03-06T08:46:57;8.7;72.6
78448;SHT31;67742;51.972;5.682;2024-03-06T08:49:26;8.7;72.8
78448;SHT31;67742;51.972;5.682;2024-03-06T08:51:54;8.8;72.9
78448;SHT31;67742;51.972;5.682;2024-03-06T08:54:23;8.9;72.5
78448;SHT31;67742;51.972;5.682;2024-03-06T08:56:51;8.9;72.6
78448;SHT31;67742;51.972;5.682;2024-03-06T08:59:24;8.9;72.4
78448;SHT31;67742;51.972;5.682;2024-03-06T09:01:54;9.0;72.5
78448;SHT31;67742;51.972;5.682;2024-03-06T09:04:23;9.1;73.1
78448;SHT31;67742;51.972;5.682;2024-03-06T09:06:51;9.2;72.7
78448;SHT31;67742;51.972;5.682;2024-03-06T09:09:22;9.3;71.9
78448;SHT31;67742;51.972;5.682;2024-03-06T09:11:50;9.4;71.8
78448;SHT31;67742;51.972;5.682;2024-03-06T09:14:19;9.4;71.7
78448;SHT31;67742;51.972;5.682;2024-03-06T09:16:47;9.4;72.0
78448;SHT31;67742;51.972;5.682;2024-03-06T09:19:15;9.5;71.7
78448;SHT31;67742;51.972;5.682;2024-03-06T09:21:44;9.5;71.7
78448;SHT31;67742;51.972;5.682;2024-03-06T09:24:13;9.6;71.7
78448;SHT31;67742;51.972;5.682;2024-03-06T09:26:41;9.6;71.8
78448;SHT31;67742;51.972;5.682;2024-03-06T09:29:10;9.6;71.7
78448;SHT31;67742;51.972;5.682;2024-03-06T09:31:38;9.7;71.9
78448;SHT31;67742;51.972;5.682;2024-03-06T09:34:07;9.7;71.5
78448;SHT31;67742;51.972;5.682;2024-03-06T09:36:38;9.8;72.0
78448;SHT31;67742;51.972;5.682;2024-03-06T09:39:06;9.8;72.2
78448;SHT31;67742;51.972;5.682;2024-03-06T09:41:35;9.9;71.8
78448;SHT31;67742;51.972;5.682;2024-03-06T09:44:06;9.9;71.6
78448;SHT31;67742;51.972;5.682;2024-03-06T09:46:34;9.9;72.3
78448;SHT31;67742;51.972;5.682;2024-03-06T09:49:04;10.0;72.6
78448;SHT31;67742;51.972;5.682;2024-03-06T09:51:34;10.0;72.6
78448;SHT31;67742;51.972;5.682;2024-03-06T09:54:05;10.1;72.4
78448;SHT31;67742;51.972;5.682;2024-03-06T09:56:35;10.1;71.8
78448;SHT31;67742;51.972;5.682;2024-03-06T09:59:04;10.2;71.9
78448;SHT31;67742;51.972;5.682;2024-03-06T10:01:35;10.2;72.4
78448;SHT31;67742;51.972;5.682;2024-03-06T10:04:19;10.3;72.2
78448;SHT31;67742;51.972;5.682;2024-03-06T10:06:48;10.4;71.5
78448;SHT31;67742;51.972;5.682;2024-03-06T10:09:21;10.4;71.1
78448;SHT31;67742;51.972;5.682;2024-03-06T10:11:50;10.5;71.0
78448;SHT31;67742;51.972;5.682;2024-03-06T10:14:20;10.5;70.8
78448;SHT31;67742;51.972;5.682;2024-03-06T10:16:54;10.6;70.5
78448;SHT31;67742;51.972;5.682;2024-03-06T10:19:25;10.6;70.5
78448;SHT31;67742;51.972;5.682;2024-03-06T10:21:55;10.7;69.7
78448;SHT31;67742;51.972;5.682;2024-03-06T10:24:25;10.7;69.9
78448;SHT31;67742;51.972;5.682;2024-03-06T10:26:55;10.8;70.1
78448;SHT31;67742;51.972;5.682;2024-03-06T10:29:26;10.8;69.8
78448;SHT31;67742;51.972;5.682;2024-03-06T10:31:56;10.9;69.7
78448;SHT31;67742;51.972;5.682;2024-03-06T10:34:27;10.9;70.0
78448;SHT31;67742;51.972;5.682;2024-03-06T10:36:58;10.9;69.7
78448;SHT31;67742;51.972;5.682;2024-03-06T10:39:31;11.0;69.4
78448;SHT31;67742;51.972;5.682;2024-03-06T10:42:03;11.0;69.4
78448;SHT31;67742;51.972;5.682;2024-03-06T10:44:34;11.0;69.3
78448;SHT31;67742;51.972;5.682;2024-03-06T10:47:05;11.1;69.4
78448;SHT31;67742;51.972;5.682;2024-03-06T10:49:34;11.1;69.7
78448;SHT31;67742;51.972;5.682;2024-03-06T10:52:05;11.2;69.3
78448;SHT31;67742;51.972;5.682;2024-03-06T10:54:35;11.2;69.8
78448;SHT31;67742;51.972;5.682;2024-03-06T10:57:05;11.3;69.3
78448;SHT31;67742;51.972;5.682;2024-03-06T10:59:35;11.3;68.5
78448;SHT31;67742;51.972;5.682;2024-03-06T11:02:04;11.3;68.5
78448;SHT31;67742;51.972;5.682;2024-03-06T11:04:35;11.3;68.6
78448;SHT31;67742;51.972;5.682;2024-03-06T11:07:06;11.4;68.4
78448;SHT31;67742;51.972;5.682;2024-03-06T11:09:35;11.4;68.0
78448;SHT31;67742;51.972;5.682;2024-03-06T11:12:05;11.4;67.9
78448;SHT31;67742;51.972;5.682;2024-03-06T11:14:37;11.4;68.0
78448;SHT31;67742;51.972;5.682;2024-03-06T11:17:08;11.5;68.6
78448;SHT31;67742;51.972;5.682;2024-03-06T11:20:15;11.5;69.4
78448;SHT31;67742;51.972;5.682;2024-03-06T11:23:07;11.6;68.2
78448;SHT31;67742;51.972;5.682;2024-03-06T11:26:04;11.6;68.3
78448;SHT31;67742;51.972;5.682;2024-03-06T11:28:36;11.7;69.1
78448;SHT31;67742;51.972;5.682;2024-03-06T11:31:08;11.8;68.4
78448;SHT31;67742;51.972;5.682;2024-03-06T11:33:41;11.8;69.1
78448;SHT31;67742;51.972;5.682;2024-03-06T11:36:17;11.9;69.8
78448;SHT31;67742;51.972;5.682;2024-03-06T11:38:50;12.0;68.7
78448;SHT31;67742;51.972;5.682;2024-03-06T11:41:19;12.0;67.6
78448;SHT31;67742;51.972;5.682;2024-03-06T11:43:51;12.1;66.6
78448;SHT31;67742;51.972;5.682;2024-03-06T11:46:20;12.1;66.7
78448;SHT31;67742;51.972;5.682;2024-03-06T11:48:55;12.2;66.8
78448;SHT31;67742;51.972;5.682;2024-03-06T11:51:25;12.2;66.1
78448;SHT31;67742;51.972;5.682;2024-03-06T11:53:53;12.2;66.2
78448;SHT31;67742;51.972;5.682;2024-03-06T11:56:22;12.3;67.1
78448;SHT31;67742;51.972;5.682;2024-03-06T11:58:50;12.3;67.8
78448;SHT31;67742;51.972;5.682;2024-03-06T12:01:19;12.4;67.0
78448;SHT31;67742;51.972;5.682;2024-03-06T12:03:50;12.4;66.3
78448;SHT31;67742;51.972;5.682;2024-03-06T12:06:18;12.5;66.0
78448;SHT31;67742;51.972;5.682;2024-03-06T12:08:49;12.5;66.2
78448;SHT31;67742;51.972;5.682;2024-03-06T12:11:17;12.6;64.7
78448;SHT31;67742;51.972;5.682;2024-03-06T12:13:48;12.6;64.8
78448;SHT31;67742;51.972;5.682;2024-03-06T12:16:17;12.6;65.6
78448;SHT31;67742;51.972;5.682;2024-03-06T12:18:45;12.6;65.3
78448;SHT31;67742;51.972;5.682;2024-03-06T12:21:14;12.7;64.7
78448;SHT31;67742;51.972;5.682;2024-03-06T12:23:43;12.7;65.3
78448;SHT31;67742;51.972;5.682;2024-03-06T12:26:11;12.8;65.6
78448;SHT31;67742;51.972;5.682;2024-03-06T12:28:40;12.8;65.6
78448;SHT31;67742;51.972;5.682;2024-03-06T12:31:12;12.9;65.2
78448;SHT31;67742;51.972;5.682;2024-03-06T12:33:40;13.0;64.6
78448;SHT31;67742;51.972;5.682;2024-03-06T12:36:11;13.1;64.6
78448;SHT31;67742;51.972;5.682;2024-03-06T12:38:39;13.2;64.5
78448;SHT31;67742;51.972;5.682;2024-03-06T12:41:10;13.3;64.4
78448;SHT31;67742;51.972;5.682;2024-03-06T12:43:38;13.3;64.0
78448;SHT31;67742;51.972;5.682;2024-03-06T12:46:07;13.4;63.4
78448;SHT31;67742;51.972;5.682;2024-03-06T12:48:35;13.4;63.7
78448;SHT31;67742;51.972;5.682;2024-03-06T12:51:04;13.5;62.5
78448;SHT31;67742;51.972;5.682;2024-03-06T12:53:33;13.6;62.5
78448;SHT31;67742;51.972;5.682;2024-03-06T12:56:02;13.6;62.0
78448;SHT31;67742;51.972;5.682;2024-03-06T12:58:30;13.6;61.1
78448;SHT31;67742;51.972;5.682;2024-03-06T13:01:01;13.7;61.9
78448;SHT31;67742;51.972;5.682;2024-03-06T13:03:33;13.7;60.8
78448;SHT31;67742;51.972;5.682;2024-03-06T13:06:01;13.8;60.7
78448;SHT31;67742;51.972;5.682;2024-03-06T13:08:30;13.8;60.8
78448;SHT31;67742;51.972;5.682;2024-03-06T13:10:59;13.8;60.3
78448;SHT31;67742;51.972;5.682;2024-03-06T13:13:29;13.9;60.3
78448;SHT31;67742;51.972;5.682;2024-03-06T13:16:00;13.9;59.5
78448;SHT31;67742;51.972;5.682;2024-03-06T13:18:28;14.0;59.8
78448;SHT31;67742;51.972;5.682;2024-03-06T13:20:57;14.0;59.3
78448;SHT31;67742;51.972;5.682;2024-03-06T13:23:27;14.0;58.7
78448;SHT31;67742;51.972;5.682;2024-03-06T13:25:57;14.1;59.1
78448;SHT31;67742;51.972;5.682;2024-03-06T13:28:27;14.1;58.0
78448;SHT31;67742;51.972;5.682;2024-03-06T13:30:55;14.1;58.3
78448;SHT31;67742;51.972;5.682;2024-03-06T13:33:24;14.2;56.6
78448;SHT31;67742;51.972;5.682;2024-03-06T13:35:54;14.2;56.0
78448;SHT31;67742;51.972;5.682;2024-03-06T13:38:23;14.2;57.2
78448;SHT31;67742;51.972;5.682;2024-03-06T13:40:51;14.2;56.7
78448;SHT31;67742;51.972;5.682;2024-03-06T13:43:21;14.2;56.7
78448;SHT31;67742;51.972;5.682;2024-03-06T13:45:51;14.2;56.6
78448;SHT31;67742;51.972;5.682;2024-03-06T13:48:20;14.2;55.6
78448;SHT31;67742;51.972;5.682;2024-03-06T13:50:49;14.2;56.5
78448;SHT31;67742;51.972;5.682;2024-03-06T13:53:19;14.2;55.0
78448;SHT31;67742;51.972;5.682;2024-03-06T13:55:50;14.3;54.7
78448;SHT31;67742;51.972;5.682;2024-03-06T13:58:19;14.3;55.1
78448;SHT31;67742;51.972;5.682;2024-03-06T14:00:47;14.3;55.1
78448;SHT31;67742;51.972;5.682;2024-03-06T14:03:17;14.3;54.1
78448;SHT31;67742;51.972;5.682;2024-03-06T14:05:46;14.3;55.1
78448;SHT31;67742;51.972;5.682;2024-03-06T14:08:14;14.3;54.3
78448;SHT31;67742;51.972;5.682;2024-03-06T14:10:43;14.3;54.1
78448;SHT31;67742;51.972;5.682;2024-03-06T14:13:12;14.3;54.2
78448;SHT31;67742;51.972;5.682;2024-03-06T14:15:40;14.3;54.6
78448;SHT31;67742;51.972;5.682;2024-03-06T14:18:09;14.3;54.5
78448;SHT31;67742;51.972;5.682;2024-03-06T14:20:38;14.3;54.0
78448;SHT31;67742;51.972;5.682;2024-03-06T14:23:07;14.3;53.1
78448;SHT31;67742;51.972;5.682;2024-03-06T14:25:37;14.3;53.4
78448;SHT31;67742;51.972;5.682;2024-03-06T14:28:08;14.3;54.2
78448;SHT31;67742;51.972;5.682;2024-03-06T14:30:37;14.3;54.1
78448;SHT31;67742;51.972;5.682;2024-03-06T14:33:06;14.3;53.8
78448;SHT31;67742;51.972;5.682;2024-03-06T14:35:34;14.3;53.9
78448;SHT31;67742;51.972;5.682;2024-03-06T14:38:03;14.3;54.1
78448;SHT31;67742;51.972;5.682;2024-03-06T14:40:31;14.3;54.0
78448;SHT31;67742;51.972;5.682;2024-03-06T14:43:00;14.3;54.3
78448;SHT31;67742;51.972;5.682;2024-03-06T14:45:30;14.3;54.2
78448;SHT31;67742;51.972;5.682;2024-03-06T14:47:59;14.3;54.0
78448;SHT31;67742;51.972;5.682;2024-03-06T14:50:28;14.3;52.9
78448;SHT31;67742;51.972;5.682;2024-03-06T14:52:57;14.3;52.9
78448;SHT31;67742;51.972;5.682;2024-03-06T14:55:25;14.3;53.1
78448;SHT31;67742;51.972;5.682;2024-03-06T14:57:54;14.3;53.2
78448;SHT31;67742;51.972;5.682;2024-03-06T15:00:23;14.3;53.7
78448;SHT31;67742;51.972;5.682;2024-03-06T15:02:51;14.3;53.5
78448;SHT31;67742;51.972;5.682;2024-03-06T15:05:24;14.2;52.8
78448;SHT31;67742;51.972;5.682;2024-03-06T15:07:53;14.2;53.5
78448;SHT31;67742;51.972;5.682;2024-03-06T15:10:23;14.2;53.3
78448;SHT31;67742;51.972;5.682;2024-03-06T15:12:51;14.2;53.3
78448;SHT31;67742;51.972;5.682;2024-03-06T15:15:19;14.2;53.9
78448;SHT31;67742;51.972;5.682;2024-03-06T15:17:48;14.2;53.0
78448;SHT31;67742;51.972;5.682;2024-03-06T15:20:16;14.2;53.4
78448;SHT31;67742;51.972;5.682;2024-03-06T15:22:47;14.2;53.3
78448;SHT31;67742;51.972;5.682;2024-03-06T15:25:19;14.2;52.7
78448;SHT31;67742;51.972;5.682;2024-03-06T15:27:47;14.2;53.1
78448;SHT31;67742;51.972;5.682;2024-03-06T15:30:16;14.2;52.0
78448;SHT31;67742;51.972;5.682;2024-03-06T15:32:47;14.2;52.0
78448;SHT31;67742;51.972;5.682;2024-03-06T15:35:15;14.2;51.8
78448;SHT31;67742;51.972;5.682;2024-03-06T15:37:44;14.2;52.3
78448;SHT31;67742;51.972;5.682;2024-03-06T15:40:15;14.2;52.2
78448;SHT31;67742;51.972;5.682;2024-03-06T15:42:43;14.2;52.8
78448;SHT31;67742;51.972;5.682;2024-03-06T15:45:13;14.2;53.7
78448;SHT31;67742;51.972;5.682;2024-03-06T15:47:45;14.2;52.6
78448;SHT31;67742;51.972;5.682;2024-03-06T15:50:16;14.2;52.9
78448;SHT31;67742;51.972;5.682;2024-03-06T15:52:44;14.2;53.0
78448;SHT31;67742;51.972;5.682;2024-03-06T15:55:13;14.2;52.7
78448;SHT31;67742;51.972;5.682;2024-03-06T15:57:43;14.3;53.5
78448;SHT31;67742;51.972;5.682;2024-03-06T16:00:12;14.3;53.0
78448;SHT31;67742;51.972;5.682;2024-03-06T16:02:43;14.3;52.4
78448;SHT31;67742;51.972;5.682;2024-03-06T16:05:12;14.3;53.0
78448;SHT31;67742;51.972;5.682;2024-03-06T16:07:40;14.3;52.9
78448;SHT31;67742;51.972;5.682;2024-03-06T16:10:09;14.4;53.0
78448;SHT31;67742;51.972;5.682;2024-03-06T16:12:38;14.4;53.6
78448;SHT31;67742;51.972;5.682;2024-03-06T16:15:07;14.4;53.9
78448;SHT31;67742;51.972;5.682;2024-03-06T16:17:36;14.4;53.0
78448;SHT31;67742;51.972;5.682;2024-03-06T16:20:05;14.4;53.5
78448;SHT31;67742;51.972;5.682;2024-03-06T16:22:34;14.4;53.0
78448;SHT31;67742;51.972;5.682;2024-03-06T16:25:03;14.4;53.2
78448;SHT31;67742;51.972;5.682;2024-03-06T16:27:32;14.4;52.6